sensor_id;sensor_type;location;lat;lon;timestamp;P1;durP1;ratioP1;P2;durP2;ratioP2
79124;SDS011;68527;39.470;-0.376;2023-07-20T00:00:51;5.90;;;3.90;;
79124;SDS011;68527;39.470;-0.376;2023-07-20T00:03:18;5.00;;;4.40;;
79124;SDS011;68527;39.470;-0.376;2023-07-20T00:05:48;4.60;;;4.20;;
79124;SDS011;68527;39.470;-0.376;2023-07-20T00:08:15;5.10;;;4.00;;
79124;SDS011;68527;39.470;-0.376;2023-07-20T00:10:41;5.40;;;4.20;;
79124;SDS011;68527;39.470;-0.376;2023-07-20T00:13:07;5.50;;;4.20;;
79124;SDS011;68527;39.470;-0.376;2023-07-20T00:15:32;5.80;;;4.10;;
79124;SDS011;68527;39.470;-0.376;2023-07-20T00:17:58;4.60;;;4.10;;
79124;SDS011;68527;39.470;-0.376;2023-07-20T00:20:24;6.00;;;4.00;;
79124;SDS011;68527;39.470;-0.376;2023-07-20T00:22:50;5.30;;;4.30;;
79124;SDS011;68527;39.470;-0.376;2023-07-20T00:25:16;5.30;;;3.70;;
79124;SDS011;68527;39.470;-0.376;2023-07-20T00:27:43;4.40;;;3.90;;
79124;SDS011;68527;39.470;-0.376;2023-07-20T00:30:09;5.10;;;4.10;;
79124;SDS011;68527;39.470;-0.376;2023-07-20T00:32:35;4.40;;;4.00;;
79124;SDS011;68527;39.470;-0.376;2023-07-20T00:35:00;4.50;;;3.80;;
79124;SDS011;68527;39.470;-0.376;2023-07-20T00:37:26;4.70;;;3.70;;
79124;SDS011;68527;39.470;-0.376;2023-07-20T00:39:52;4.50;;;3.60;;
79124;SDS011;68527;39.470;-0.376;2023-07-20T00:42:18;4.60;;;4.20;;
79124;SDS011;68527;39.470;-0.376;2023-07-20T00:44:44;5.30;;;3.40;;
79124;SDS011;68527;39.470;-0.376;2023-07-20T00:47:09;4.30;;;3.60;;
79124;SDS011;68527;39.470;-0.376;2023-07-20T00:49:35;4.20;;;3.60;;
79124;SDS011;68527;39.470;-0.376;2023-07-20T00:52:01;4.00;;;3.60;;
79124;SDS011;68527;39.470;-0.376;2023-07-20T00:54:29;5.20;;;3.60;;
79124;SDS011;68527;39.470;-0.376;2023-07-20T00:56:55;4.40;;;3.50;;
79124;SDS011;68527;39.470;-0.376;2023-07-20T00:59:20;5.00;;;3.90;;
79124;SDS011;68527;39.470;-0.376;2023-07-20T01:01:46;4.80;;;4.30;;
79124;SDS011;68527;39.470;-0.376;2023-07-20T01:04:12;4.80;;;4.20;;
79124;SDS011;68527;39.470;-0.376;2023-07-20T01:14:04;7.30;;;4.00;;
79124;SDS011;68527;39.470;-0.376;2023-07-20T01:16:30;4.40;;;4.00;;
79124;SDS011;68527;39.470;-0.376;2023-07-20T01:18:56;5.80;;;4.30;;
79124;SDS011;68527;39.470;-0.376;2023-07-20T01:21:24;5.40;;;3.90;;
79124;SDS011;68527;39.470;-0.376;2023-07-20T01:24:01;5.30;;;3.70;;
79124;SDS011;68527;39.470;-0.376;2023-07-20T01:29:51;4.40;;;3.70;;
79124;SDS011;68527;39.470;-0.376;2023-07-20T01:32:26;5.20;;;3.70;;
79124;SDS011;68527;39.470;-0.376;2023-07-20T01:34:53;4.60;;;4.10;;
79124;SDS011;68527;39.470;-0.376;2023-07-20T01:37:20;5.00;;;4.40;;
79124;SDS011;68527;39.470;-0.376;2023-07-20T01:39:46;5.10;;;3.90;;
79124;SDS011;68527;39.470;-0.376;2023-07-20T01:42:12;4.30;;;3.90;;
79124;SDS011;68527;39.470;-0.376;2023-07-20T01:44:38;4.70;;;4.20;;
79124;SDS011;68527;39.470;-0.376;2023-07-20T01:47:03;4.80;;;4.00;;
79124;SDS011;68527;39.470;-0.376;2023-07-20T01:49:29;5.80;;;4.40;;
79124;SDS011;68527;39.470;-0.376;2023-07-20T01:51:55;4.70;;;3.60;;
79124;SDS011;68527;39.470;-0.376;2023-07-20T01:54:20;5.10;;;4.00;;
79124;SDS011;68527;39.470;-0.376;2023-07-20T01:56:46;4.80;;;4.00;;
79124;SDS011;68527;39.470;-0.376;2023-07-20T01:59:12;4.40;;;3.50;;
79124;SDS011;68527;39.470;-0.376;2023-07-20T02:01:37;4.20;;;3.70;;
79124;SDS011;68527;39.470;-0.376;2023-07-20T02:04:03;4.80;;;3.90;;
79124;SDS011;68527;39.470;-0.376;2023-07-20T02:06:28;4.80;;;4.30;;
79124;SDS011;68527;39.470;-0.376;2023-07-20T02:08:54;4.60;;;4.20;;
79124;SDS011;68527;39.470;-0.376;2023-07-20T02:11:19;5.00;;;4.30;;
79124;SDS011;68527;39.470;-0.376;2023-07-20T02:13:45;4.00;;;3.60;;
79124;SDS011;68527;39.470;-0.376;2023-07-20T02:16:11;4.40;;;3.80;;
79124;SDS011;68527;39.470;-0.376;2023-07-20T02:18:36;4.40;;;4.00;;
79124;SDS011;68527;39.470;-0.376;2023-07-20T02:21:02;6.20;;;4.30;;
79124;SDS011;68527;39.470;-0.376;2023-07-20T02:23:28;5.30;;;3.90;;
79124;SDS011;68527;39.470;-0.376;2023-07-20T02:25:53;4.50;;;4.00;;
79124;SDS011;68527;39.470;-0.376;2023-07-20T02:28:19;5.50;;;4.30;;
79124;SDS011;68527;39.470;-0.376;2023-07-20T02:30:44;5.60;;;4.00;;
79124;SDS011;68527;39.470;-0.376;2023-07-20T02:33:11;4.80;;;4.20;;
79124;SDS011;68527;39.470;-0.376;2023-07-20T02:35:36;5.10;;;4.30;;
79124;SDS011;68527;39.470;-0.376;2023-07-20T02:38:02;4.50;;;4.00;;
79124;SDS011;68527;39.470;-0.376;2023-07-20T02:40:28;5.10;;;4.30;;
79124;SDS011;68527;39.470;-0.376;2023-07-20T02:42:54;5.10;;;3.90;;
79124;SDS011;68527;39.470;-0.376;2023-07-20T02:45:21;4.90;;;4.40;;
79124;SDS011;68527;39.470;-0.376;2023-07-20T02:47:47;4.60;;;4.10;;
79124;SDS011;68527;39.470;-0.376;2023-07-20T02:50:14;5.40;;;4.40;;
79124;SDS011;68527;39.470;-0.376;2023-07-20T02:52:41;4.70;;;4.00;;
79124;SDS011;68527;39.470;-0.376;2023-07-20T02:55:06;4.90;;;4.30;;
79124;SDS011;68527;39.470;-0.376;2023-07-20T02:57:32;4.80;;;4.30;;
79124;SDS011;68527;39.470;-0.376;2023-07-20T03:00:01;6.40;;;4.40;;
79124;SDS011;68527;39.470;-0.376;2023-07-20T03:02:29;5.10;;;4.00;;
79124;SDS011;68527;39.470;-0.376;2023-07-20T03:04:55;4.60;;;4.10;;
79124;SDS011;68527;39.470;-0.376;2023-07-20T03:07:22;5.30;;;4.10;;
79124;SDS011;68527;39.470;-0.376;2023-07-20T03:09:48;4.70;;;3.80;;
79124;SDS011;68527;39.470;-0.376;2023-07-20T03:12:13;5.70;;;5.00;;
79124;SDS011;68527;39.470;-0.376;2023-07-20T03:14:39;5.10;;;4.00;;
79124;SDS011;68527;39.470;-0.376;2023-07-20T03:17:05;5.00;;;3.70;;
79124;SDS011;68527;39.470;-0.376;2023-07-20T03:19:30;5.20;;;4.20;;
79124;SDS011;68527;39.470;-0.376;2023-07-20T03:21:56;4.70;;;4.20;;
79124;SDS011;68527;39.470;-0.376;2023-07-20T03:24:22;5.00;;;4.30;;
79124;SDS011;68527;39.470;-0.376;2023-07-20T03:26:48;4.90;;;4.10;;
79124;SDS011;68527;39.470;-0.376;2023-07-20T03:29:14;5.10;;;4.10;;
79124;SDS011;68527;39.470;-0.376;2023-07-20T03:31:41;6.40;;;4.10;;
79124;SDS011;68527;39.470;-0.376;2023-07-20T03:34:06;5.90;;;4.70;;
79124;SDS011;68527;39.470;-0.376;2023-07-20T03:36:33;5.30;;;4.10;;
79124;SDS011;68527;39.470;-0.376;2023-07-20T03:38:59;4.50;;;3.90;;
79124;SDS011;68527;39.470;-0.376;2023-07-20T03:41:24;6.70;;;4.80;;
79124;SDS011;68527;39.470;-0.376;2023-07-20T03:43:50;5.60;;;4.30;;
79124;SDS011;68527;39.470;-0.376;2023-07-20T03:46:16;5.40;;;4.50;;
79124;SDS011;68527;39.470;-0.376;2023-07-20T03:48:42;5.30;;;4.20;;
79124;SDS011;68527;39.470;-0.376;2023-07-20T03:51:07;6.30;;;4.20;;
79124;SDS011;68527;39.470;-0.376;2023-07-20T03:53:33;5.70;;;4.10;;
79124;SDS011;68527;39.470;-0.376;2023-07-20T03:55:59;5.80;;;4.00;;
79124;SDS011;68527;39.470;-0.376;2023-07-20T03:58:25;5.50;;;4.20;;
79124;SDS011;68527;39.470;-0.376;2023-07-20T04:00:51;5.00;;;3.80;;
79124;SDS011;68527;39.470;-0.376;2023-07-20T04:03:17;4.40;;;4.00;;
79124;SDS011;68527;39.470;-0.376;2023-07-20T04:05:43;5.90;;;4.10;;
79124;SDS011;68527;39.470;-0.376;2023-07-20T04:08:09;7.10;;;4.40;;
79124;SDS011;68527;39.470;-0.376;2023-07-20T04:10:38;4.40;;;4.00;;
79124;SDS011;68527;39.470;-0.376;2023-07-20T04:13:05;4.90;;;4.20;;
79124;SDS011;68527;39.470;-0.376;2023-07-20T04:15:30;5.50;;;4.00;;
79124;SDS011;68527;39.470;-0.376;2023-07-20T04:17:56;4.80;;;3.80;;
79124;SDS011;68527;39.470;-0.376;2023-07-20T04:20:25;4.10;;;3.70;;
79124;SDS011;68527;39.470;-0.376;2023-07-20T04:22:50;6.60;;;4.10;;
79124;SDS011;68527;39.470;-0.376;2023-07-20T04:25:19;7.00;;;4.60;;
79124;SDS011;68527;39.470;-0.376;2023-07-20T04:27:45;5.30;;;4.30;;
79124;SDS011;68527;39.470;-0.376;2023-07-20T04:30:11;5.60;;;4.20;;
79124;SDS011;68527;39.470;-0.376;2023-07-20T04:32:38;4.40;;;3.80;;
79124;SDS011;68527;39.470;-0.376;2023-07-20T04:35:07;4.70;;;4.00;;
79124;SDS011;68527;39.470;-0.376;2023-07-20T04:37:33;4.30;;;3.90;;
79124;SDS011;68527;39.470;-0.376;2023-07-20T04:39:59;4.70;;;3.90;;
79124;SDS011;68527;39.470;-0.376;2023-07-20T04:42:24;4.60;;;4.00;;
79124;SDS011;68527;39.470;-0.376;2023-07-20T04:44:50;4.40;;;4.00;;
79124;SDS011;68527;39.470;-0.376;2023-07-20T04:47:15;4.20;;;3.80;;
79124;SDS011;68527;39.470;-0.376;2023-07-20T04:49:41;5.40;;;3.60;;
79124;SDS011;68527;39.470;-0.376;2023-07-20T04:52:07;4.80;;;4.00;;
79124;SDS011;68527;39.470;-0.376;2023-07-20T04:54:33;5.30;;;4.10;;
79124;SDS011;68527;39.470;-0.376;2023-07-20T04:56:58;5.90;;;4.00;;
79124;SDS011;68527;39.470;-0.376;2023-07-20T04:59:24;4.90;;;3.80;;
79124;SDS011;68527;39.470;-0.376;2023-07-20T05:01:49;5.70;;;3.90;;
79124;SDS011;68527;39.470;-0.376;2023-07-20T05:04:15;5.70;;;3.90;;
79124;SDS011;68527;39.470;-0.376;2023-07-20T05:06:40;11.00;;;4.40;;
79124;SDS011;68527;39.470;-0.376;2023-07-20T05:09:06;10.10;;;3.90;;
79124;SDS011;68527;39.470;-0.376;2023-07-20T05:11:32;8.30;;;3.90;;
79124;SDS011;68527;39.470;-0.376;2023-07-20T05:13:59;5.90;;;4.20;;
79124;SDS011;68527;39.470;-0.376;2023-07-20T05:16:25;5.50;;;4.00;;
79124;SDS011;68527;39.470;-0.376;2023-07-20T05:18:50;8.40;;;4.10;;
79124;SDS011;68527;39.470;-0.376;2023-07-20T05:21:16;5.80;;;4.00;;
79124;SDS011;68527;39.470;-0.376;2023-07-20T05:23:41;6.70;;;4.30;;
79124;SDS011;68527;39.470;-0.376;2023-07-20T05:26:07;11.00;;;4.00;;
79124;SDS011;68527;39.470;-0.376;2023-07-20T05:28:33;6.60;;;4.00;;
79124;SDS011;68527;39.470;-0.376;2023-07-20T05:30:59;7.20;;;4.10;;
79124;SDS011;68527;39.470;-0.376;2023-07-20T05:33:24;7.50;;;4.20;;
79124;SDS011;68527;39.470;-0.376;2023-07-20T05:35:50;5.20;;;3.90;;
79124;SDS011;68527;39.470;-0.376;2023-07-20T05:38:16;6.70;;;3.90;;
79124;SDS011;68527;39.470;-0.376;2023-07-20T05:40:41;5.70;;;4.40;;
79124;SDS011;68527;39.470;-0.376;2023-07-20T05:43:10;6.20;;;4.30;;
79124;SDS011;68527;39.470;-0.376;2023-07-20T05:45:36;5.60;;;4.00;;
79124;SDS011;68527;39.470;-0.376;2023-07-20T05:48:02;7.80;;;4.20;;
79124;SDS011;68527;39.470;-0.376;2023-07-20T05:50:29;5.30;;;3.80;;
79124;SDS011;68527;39.470;-0.376;2023-07-20T05:52:55;6.60;;;4.40;;
79124;SDS011;68527;39.470;-0.376;2023-07-20T05:55:21;4.80;;;4.10;;
79124;SDS011;68527;39.470;-0.376;2023-07-20T05:57:46;6.30;;;4.50;;
79124;SDS011;68527;39.470;-0.376;2023-07-20T06:00:13;5.00;;;4.30;;
79124;SDS011;68527;39.470;-0.376;2023-07-20T06:02:39;5.40;;;4.10;;
79124;SDS011;68527;39.470;-0.376;2023-07-20T06:05:05;5.80;;;4.00;;
79124;SDS011;68527;39.470;-0.376;2023-07-20T06:07:34;5.40;;;4.00;;
79124;SDS011;68527;39.470;-0.376;2023-07-20T06:10:01;4.50;;;3.90;;
79124;SDS011;68527;39.470;-0.376;2023-07-20T06:12:27;4.40;;;3.70;;
79124;SDS011;68527;39.470;-0.376;2023-07-20T06:14:53;4.60;;;4.10;;
79124;SDS011;68527;39.470;-0.376;2023-07-20T06:17:19;4.50;;;3.60;;
79124;SDS011;68527;39.470;-0.376;2023-07-20T06:19:45;5.20;;;3.80;;
79124;SDS011;68527;39.470;-0.376;2023-07-20T06:22:10;5.50;;;3.90;;
79124;SDS011;68527;39.470;-0.376;2023-07-20T06:24:36;5.50;;;4.20;;
79124;SDS011;68527;39.470;-0.376;2023-07-20T06:27:01;5.30;;;4.10;;
79124;SDS011;68527;39.470;-0.376;2023-07-20T06:29:28;5.30;;;4.50;;
79124;SDS011;68527;39.470;-0.376;2023-07-20T06:31:53;6.00;;;4.10;;
79124;SDS011;68527;39.470;-0.376;2023-07-20T06:34:19;7.90;;;4.40;;
79124;SDS011;68527;39.470;-0.376;2023-07-20T06:36:44;6.00;;;5.10;;
79124;SDS011;68527;39.470;-0.376;2023-07-20T06:39:10;8.10;;;5.90;;
79124;SDS011;68527;39.470;-0.376;2023-07-20T06:41:36;9.10;;;6.10;;
79124;SDS011;68527;39.470;-0.376;2023-07-20T06:44:01;17.00;;;7.40;;
79124;SDS011;68527;39.470;-0.376;2023-07-20T06:46:28;11.20;;;5.80;;
79124;SDS011;68527;39.470;-0.376;2023-07-20T06:48:54;9.40;;;4.70;;
79124;SDS011;68527;39.470;-0.376;2023-07-20T06:51:20;12.00;;;5.30;;
79124;SDS011;68527;39.470;-0.376;2023-07-20T06:53:45;13.40;;;5.80;;
79124;SDS011;68527;39.470;-0.376;2023-07-20T06:56:11;13.90;;;5.90;;
79124;SDS011;68527;39.470;-0.376;2023-07-20T06:58:37;8.30;;;5.70;;
79124;SDS011;68527;39.470;-0.376;2023-07-20T07:01:06;12.30;;;5.20;;
79124;SDS011;68527;39.470;-0.376;2023-07-20T07:03:32;10.80;;;6.00;;
79124;SDS011;68527;39.470;-0.376;2023-07-20T07:05:58;10.00;;;6.20;;
79124;SDS011;68527;39.470;-0.376;2023-07-20T07:08:24;6.90;;;5.00;;
79124;SDS011;68527;39.470;-0.376;2023-07-20T07:10:49;8.00;;;6.30;;
79124;SDS011;68527;39.470;-0.376;2023-07-20T07:13:15;9.90;;;5.40;;
79124;SDS011;68527;39.470;-0.376;2023-07-20T07:15:41;7.30;;;5.30;;
79124;SDS011;68527;39.470;-0.376;2023-07-20T07:18:06;10.40;;;5.90;;
79124;SDS011;68527;39.470;-0.376;2023-07-20T07:20:32;9.50;;;5.40;;
79124;SDS011;68527;39.470;-0.376;2023-07-20T07:22:57;10.30;;;5.70;;
79124;SDS011;68527;39.470;-0.376;2023-07-20T07:25:23;6.80;;;5.30;;
79124;SDS011;68527;39.470;-0.376;2023-07-20T07:27:48;9.00;;;5.90;;
79124;SDS011;68527;39.470;-0.376;2023-07-20T07:30:14;10.00;;;5.90;;
79124;SDS011;68527;39.470;-0.376;2023-07-20T07:32:40;10.60;;;5.80;;
79124;SDS011;68527;39.470;-0.376;2023-07-20T07:35:06;12.90;;;5.80;;
79124;SDS011;68527;39.470;-0.376;2023-07-20T07:37:32;9.40;;;5.80;;
79124;SDS011;68527;39.470;-0.376;2023-07-20T07:39:57;6.20;;;5.40;;
79124;SDS011;68527;39.470;-0.376;2023-07-20T07:42:23;9.10;;;5.70;;
79124;SDS011;68527;39.470;-0.376;2023-07-20T07:44:48;8.30;;;5.90;;
79124;SDS011;68527;39.470;-0.376;2023-07-20T07:47:14;9.40;;;6.50;;
79124;SDS011;68527;39.470;-0.376;2023-07-20T07:49:39;12.90;;;7.80;;
79124;SDS011;68527;39.470;-0.376;2023-07-20T07:52:05;10.20;;;7.40;;
79124;SDS011;68527;39.470;-0.376;2023-07-20T07:54:31;10.70;;;7.50;;
79124;SDS011;68527;39.470;-0.376;2023-07-20T07:56:57;9.30;;;6.80;;
79124;SDS011;68527;39.470;-0.376;2023-07-20T07:59:22;8.30;;;7.10;;
79124;SDS011;68527;39.470;-0.376;2023-07-20T08:01:48;8.40;;;6.90;;
79124;SDS011;68527;39.470;-0.376;2023-07-20T08:04:13;15.00;;;7.80;;
79124;SDS011;68527;39.470;-0.376;2023-07-20T08:06:39;12.60;;;7.20;;
79124;SDS011;68527;39.470;-0.376;2023-07-20T08:09:05;12.20;;;8.20;;
79124;SDS011;68527;39.470;-0.376;2023-07-20T08:11:31;11.30;;;7.30;;
79124;SDS011;68527;39.470;-0.376;2023-07-20T08:13:59;9.50;;;7.40;;
79124;SDS011;68527;39.470;-0.376;2023-07-20T08:16:25;13.80;;;7.80;;
79124;SDS011;68527;39.470;-0.376;2023-07-20T08:18:51;14.80;;;7.30;;
79124;SDS011;68527;39.470;-0.376;2023-07-20T08:21:17;9.10;;;7.20;;
79124;SDS011;68527;39.470;-0.376;2023-07-20T08:23:42;12.40;;;7.80;;
79124;SDS011;68527;39.470;-0.376;2023-07-20T08:26:08;10.10;;;7.60;;
79124;SDS011;68527;39.470;-0.376;2023-07-20T08:28:33;9.60;;;7.70;;
79124;SDS011;68527;39.470;-0.376;2023-07-20T08:30:59;13.30;;;8.00;;
79124;SDS011;68527;39.470;-0.376;2023-07-20T08:33:24;12.50;;;7.10;;
79124;SDS011;68527;39.470;-0.376;2023-07-20T08:35:50;11.40;;;7.70;;
79124;SDS011;68527;39.470;-0.376;2023-07-20T08:38:15;10.10;;;8.00;;
79124;SDS011;68527;39.470;-0.376;2023-07-20T08:40:42;9.70;;;7.30;;
79124;SDS011;68527;39.470;-0.376;2023-07-20T08:43:12;10.80;;;7.70;;
79124;SDS011;68527;39.470;-0.376;2023-07-20T08:45:39;12.90;;;7.70;;
79124;SDS011;68527;39.470;-0.376;2023-07-20T08:48:06;12.10;;;7.60;;
79124;SDS011;68527;39.470;-0.376;2023-07-20T08:50:33;12.30;;;7.30;;
79124;SDS011;68527;39.470;-0.376;2023-07-20T08:52:59;11.50;;;7.10;;
79124;SDS011;68527;39.470;-0.376;2023-07-20T08:55:25;14.10;;;7.70;;
79124;SDS011;68527;39.470;-0.376;2023-07-20T08:57:53;11.60;;;7.60;;
79124;SDS011;68527;39.470;-0.376;2023-07-20T09:00:20;11.00;;;7.10;;
79124;SDS011;68527;39.470;-0.376;2023-07-20T09:02:47;11.20;;;7.30;;
79124;SDS011;68527;39.470;-0.376;2023-07-20T09:05:19;14.50;;;7.50;;
79124;SDS011;68527;39.470;-0.376;2023-07-20T09:07:45;11.70;;;7.00;;
79124;SDS011;68527;39.470;-0.376;2023-07-20T09:10:13;11.50;;;6.70;;
79124;SDS011;68527;39.470;-0.376;2023-07-20T09:12:42;11.30;;;6.90;;
79124;SDS011;68527;39.470;-0.376;2023-07-20T09:15:10;12.30;;;7.10;;
79124;SDS011;68527;39.470;-0.376;2023-07-20T09:17:36;10.30;;;7.00;;
79124;SDS011;68527;39.470;-0.376;2023-07-20T09:20:07;10.70;;;6.50;;
79124;SDS011;68527;39.470;-0.376;2023-07-20T09:22:35;14.20;;;7.30;;
79124;SDS011;68527;39.470;-0.376;2023-07-20T09:25:05;11.00;;;6.30;;
79124;SDS011;68527;39.470;-0.376;2023-07-20T09:27:42;9.40;;;6.60;;
79124;SDS011;68527;39.470;-0.376;2023-07-20T09:30:09;11.00;;;7.10;;
79124;SDS011;68527;39.470;-0.376;2023-07-20T09:32:45;8.60;;;6.40;;
79124;SDS011;68527;39.470;-0.376;2023-07-20T09:35:17;12.30;;;6.40;;
79124;SDS011;68527;39.470;-0.376;2023-07-20T09:37:50;10.60;;;6.60;;
79124;SDS011;68527;39.470;-0.376;2023-07-20T09:40:19;10.20;;;6.80;;
79124;SDS011;68527;39.470;-0.376;2023-07-20T09:42:45;10.90;;;6.70;;
79124;SDS011;68527;39.470;-0.376;2023-07-20T09:45:12;8.00;;;6.00;;
79124;SDS011;68527;39.470;-0.376;2023-07-20T09:47:37;11.60;;;6.90;;
79124;SDS011;68527;39.470;-0.376;2023-07-20T09:50:05;11.00;;;6.00;;
79124;SDS011;68527;39.470;-0.376;2023-07-20T09:52:35;13.30;;;6.50;;
79124;SDS011;68527;39.470;-0.376;2023-07-20T09:55:05;12.10;;;6.50;;
79124;SDS011;68527;39.470;-0.376;2023-07-20T09:57:32;11.50;;;6.50;;
79124;SDS011;68527;39.470;-0.376;2023-07-20T09:59:58;11.50;;;6.70;;
79124;SDS011;68527;39.470;-0.376;2023-07-20T10:02:25;9.80;;;6.70;;
79124;SDS011;68527;39.470;-0.376;2023-07-20T10:04:55;10.70;;;7.40;;
79124;SDS011;68527;39.470;-0.376;2023-07-20T10:07:21;10.60;;;6.60;;
79124;SDS011;68527;39.470;-0.376;2023-07-20T10:09:49;11.40;;;7.80;;
79124;SDS011;68527;39.470;-0.376;2023-07-20T10:12:17;14.40;;;7.30;;
79124;SDS011;68527;39.470;-0.376;2023-07-20T10:14:44;12.10;;;6.60;;
79124;SDS011;68527;39.470;-0.376;2023-07-20T10:17:16;12.30;;;6.70;;
79124;SDS011;68527;39.470;-0.376;2023-07-20T10:19:44;12.10;;;7.10;;
79124;SDS011;68527;39.470;-0.376;2023-07-20T10:22:31;13.70;;;6.70;;
79124;SDS011;68527;39.470;-0.376;2023-07-20T10:25:00;10.80;;;6.40;;
79124;SDS011;68527;39.470;-0.376;2023-07-20T10:27:27;10.00;;;6.30;;
79124;SDS011;68527;39.470;-0.376;2023-07-20T10:29:52;11.50;;;6.50;;
79124;SDS011;68527;39.470;-0.376;2023-07-20T10:32:20;9.60;;;6.50;;
79124;SDS011;68527;39.470;-0.376;2023-07-20T10:34:52;12.70;;;7.10;;
79124;SDS011;68527;39.470;-0.376;2023-07-20T10:40:23;11.30;;;7.00;;
79124;SDS011;68527;39.470;-0.376;2023-07-20T10:42:50;10.20;;;6.40;;
79124;SDS011;68527;39.470;-0.376;2023-07-20T10:45:19;11.20;;;6.40;;
79124;SDS011;68527;39.470;-0.376;2023-07-20T10:47:47;10.90;;;6.90;;
79124;SDS011;68527;39.470;-0.376;2023-07-20T10:50:13;12.30;;;6.60;;
79124;SDS011;68527;39.470;-0.376;2023-07-20T10:52:40;10.30;;;6.80;;
79124;SDS011;68527;39.470;-0.376;2023-07-20T10:55:15;9.80;;;6.10;;
79124;SDS011;68527;39.470;-0.376;2023-07-20T10:57:41;12.70;;;6.70;;
79124;SDS011;68527;39.470;-0.376;2023-07-20T11:00:18;8.80;;;6.50;;
79124;SDS011;68527;39.470;-0.376;2023-07-20T11:02:48;8.50;;;6.00;;
79124;SDS011;68527;39.470;-0.376;2023-07-20T11:05:34;9.40;;;5.80;;
79124;SDS011;68527;39.470;-0.376;2023-07-20T11:08:03;10.80;;;6.90;;
79124;SDS011;68527;39.470;-0.376;2023-07-20T11:10:29;9.30;;;6.20;;
79124;SDS011;68527;39.470;-0.376;2023-07-20T11:15:47;8.30;;;6.10;;
79124;SDS011;68527;39.470;-0.376;2023-07-20T11:18:22;9.90;;;6.40;;
79124;SDS011;68527;39.470;-0.376;2023-07-20T11:20:50;9.60;;;5.90;;
79124;SDS011;68527;39.470;-0.376;2023-07-20T11:23:17;9.30;;;5.70;;
79124;SDS011;68527;39.470;-0.376;2023-07-20T11:25:42;11.30;;;6.30;;
79124;SDS011;68527;39.470;-0.376;2023-07-20T11:28:08;7.80;;;6.00;;
79124;SDS011;68527;39.470;-0.376;2023-07-20T11:30:38;9.00;;;6.20;;
79124;SDS011;68527;39.470;-0.376;2023-07-20T11:33:13;8.20;;;5.70;;
79124;SDS011;68527;39.470;-0.376;2023-07-20T11:35:44;8.20;;;6.00;;
79124;SDS011;68527;39.470;-0.376;2023-07-20T11:38:13;9.80;;;6.10;;
79124;SDS011;68527;39.470;-0.376;2023-07-20T11:40:42;8.20;;;5.80;;
79124;SDS011;68527;39.470;-0.376;2023-07-20T11:43:09;9.70;;;6.50;;
79124;SDS011;68527;39.470;-0.376;2023-07-20T11:45:37;8.50;;;5.60;;
79124;SDS011;68527;39.470;-0.376;2023-07-20T11:48:03;8.30;;;6.00;;
79124;SDS011;68527;39.470;-0.376;2023-07-20T11:50:28;8.20;;;5.70;;
79124;SDS011;68527;39.470;-0.376;2023-07-20T11:52:54;8.70;;;5.60;;
79124;SDS011;68527;39.470;-0.376;2023-07-20T11:55:19;7.80;;;5.80;;
79124;SDS011;68527;39.470;-0.376;2023-07-20T11:58:07;9.20;;;6.40;;
79124;SDS011;68527;39.470;-0.376;2023-07-20T12:00:34;8.90;;;5.90;;
79124;SDS011;68527;39.470;-0.376;2023-07-20T12:03:00;8.90;;;5.70;;
79124;SDS011;68527;39.470;-0.376;2023-07-20T12:05:26;8.30;;;5.70;;
79124;SDS011;68527;39.470;-0.376;2023-07-20T12:07:52;7.50;;;5.70;;
79124;SDS011;68527;39.470;-0.376;2023-07-20T12:10:23;7.90;;;5.80;;
79124;SDS011;68527;39.470;-0.376;2023-07-20T12:12:50;7.20;;;5.20;;
79124;SDS011;68527;39.470;-0.376;2023-07-20T12:15:25;7.30;;;5.70;;
79124;SDS011;68527;39.470;-0.376;2023-07-20T12:17:52;6.20;;;5.00;;
79124;SDS011;68527;39.470;-0.376;2023-07-20T12:20:26;7.20;;;5.70;;
79124;SDS011;68527;39.470;-0.376;2023-07-20T12:22:52;7.60;;;5.90;;
79124;SDS011;68527;39.470;-0.376;2023-07-20T12:25:19;8.90;;;5.80;;
79124;SDS011;68527;39.470;-0.376;2023-07-20T12:27:45;7.20;;;5.40;;
79124;SDS011;68527;39.470;-0.376;2023-07-20T12:30:12;8.30;;;6.40;;
79124;SDS011;68527;39.470;-0.376;2023-07-20T12:32:39;6.20;;;5.60;;
79124;SDS011;68527;39.470;-0.376;2023-07-20T12:35:05;9.20;;;5.50;;
79124;SDS011;68527;39.470;-0.376;2023-07-20T12:37:31;6.80;;;5.00;;
79124;SDS011;68527;39.470;-0.376;2023-07-20T12:39:57;6.60;;;5.00;;
79124;SDS011;68527;39.470;-0.376;2023-07-20T12:42:22;8.50;;;5.70;;
79124;SDS011;68527;39.470;-0.376;2023-07-20T12:44:48;7.10;;;5.40;;
79124;SDS011;68527;39.470;-0.376;2023-07-20T12:47:14;7.30;;;5.70;;
79124;SDS011;68527;39.470;-0.376;2023-07-20T12:49:41;7.80;;;5.60;;
79124;SDS011;68527;39.470;-0.376;2023-07-20T12:52:10;6.20;;;5.10;;
79124;SDS011;68527;39.470;-0.376;2023-07-20T12:54:36;6.30;;;5.40;;
79124;SDS011;68527;39.470;-0.376;2023-07-20T12:57:02;8.90;;;5.60;;
79124;SDS011;68527;39.470;-0.376;2023-07-20T12:59:28;6.50;;;5.10;;
79124;SDS011;68527;39.470;-0.376;2023-07-20T13:01:54;8.70;;;5.40;;
79124;SDS011;68527;39.470;-0.376;2023-07-20T13:04:19;7.50;;;5.20;;
79124;SDS011;68527;39.470;-0.376;2023-07-20T13:06:45;6.20;;;5.00;;
79124;SDS011;68527;39.470;-0.376;2023-07-20T13:09:10;8.80;;;5.50;;
79124;SDS011;68527;39.470;-0.376;2023-07-20T13:11:36;7.40;;;5.00;;
79124;SDS011;68527;39.470;-0.376;2023-07-20T13:14:01;8.10;;;5.20;;
79124;SDS011;68527;39.470;-0.376;2023-07-20T13:16:27;7.80;;;5.50;;
79124;SDS011;68527;39.470;-0.376;2023-07-20T13:18:52;6.30;;;4.70;;
79124;SDS011;68527;39.470;-0.376;2023-07-20T13:21:19;8.10;;;5.00;;
79124;SDS011;68527;39.470;-0.376;2023-07-20T13:23:47;10.00;;;5.10;;
79124;SDS011;68527;39.470;-0.376;2023-07-20T13:26:13;6.80;;;4.90;;
79124;SDS011;68527;39.470;-0.376;2023-07-20T13:28:40;6.90;;;5.20;;
79124;SDS011;68527;39.470;-0.376;2023-07-20T13:31:05;6.60;;;5.30;;
79124;SDS011;68527;39.470;-0.376;2023-07-20T13:33:33;7.60;;;4.90;;
79124;SDS011;68527;39.470;-0.376;2023-07-20T13:35:59;7.70;;;5.40;;
79124;SDS011;68527;39.470;-0.376;2023-07-20T13:38:24;6.30;;;4.70;;
79124;SDS011;68527;39.470;-0.376;2023-07-20T13:40:50;6.40;;;5.00;;
79124;SDS011;68527;39.470;-0.376;2023-07-20T13:43:15;8.50;;;5.00;;
79124;SDS011;68527;39.470;-0.376;2023-07-20T13:45:41;8.30;;;5.60;;
79124;SDS011;68527;39.470;-0.376;2023-07-20T13:48:07;7.40;;;4.80;;
79124;SDS011;68527;39.470;-0.376;2023-07-20T13:50:33;6.70;;;5.00;;
79124;SDS011;68527;39.470;-0.376;2023-07-20T13:52:58;6.40;;;4.90;;
79124;SDS011;68527;39.470;-0.376;2023-07-20T13:55:28;6.80;;;5.20;;
79124;SDS011;68527;39.470;-0.376;2023-07-20T13:57:53;7.50;;;5.00;;
79124;SDS011;68527;39.470;-0.376;2023-07-20T14:00:19;7.60;;;4.80;;
79124;SDS011;68527;39.470;-0.376;2023-07-20T14:02:45;7.20;;;4.90;;
79124;SDS011;68527;39.470;-0.376;2023-07-20T14:05:11;5.60;;;4.40;;
79124;SDS011;68527;39.470;-0.376;2023-07-20T14:07:39;8.50;;;5.10;;
79124;SDS011;68527;39.470;-0.376;2023-07-20T14:10:05;8.00;;;5.20;;
79124;SDS011;68527;39.470;-0.376;2023-07-20T14:12:33;6.70;;;4.80;;
79124;SDS011;68527;39.470;-0.376;2023-07-20T14:14:58;6.60;;;4.80;;
79124;SDS011;68527;39.470;-0.376;2023-07-20T14:17:24;6.60;;;4.40;;
79124;SDS011;68527;39.470;-0.376;2023-07-20T14:19:50;5.70;;;4.10;;
79124;SDS011;68527;39.470;-0.376;2023-07-20T14:22:17;6.20;;;4.40;;
79124;SDS011;68527;39.470;-0.376;2023-07-20T14:24:43;7.40;;;4.80;;
79124;SDS011;68527;39.470;-0.376;2023-07-20T14:27:08;7.20;;;4.60;;
79124;SDS011;68527;39.470;-0.376;2023-07-20T14:29:34;5.30;;;4.30;;
79124;SDS011;68527;39.470;-0.376;2023-07-20T14:32:01;7.20;;;4.10;;
79124;SDS011;68527;39.470;-0.376;2023-07-20T14:34:28;5.50;;;4.10;;
79124;SDS011;68527;39.470;-0.376;2023-07-20T14:36:54;5.70;;;4.20;;
79124;SDS011;68527;39.470;-0.376;2023-07-20T14:39:20;6.20;;;4.60;;
79124;SDS011;68527;39.470;-0.376;2023-07-20T14:41:47;5.50;;;4.30;;
79124;SDS011;68527;39.470;-0.376;2023-07-20T14:44:12;7.00;;;4.20;;